Time;durP1;ratioP1;P1;durP2;ratioP2;P2;SDS_P1;SDS_P2;PMS_P1;PMS_P2;Temp;Humidity;BMP_temperature;BMP_pressure;BME280_temperature;BME280_humidity;BME280_pressure;Samples;Min_cycle;Max_cycle;Signal;HPM_P1;HPM_P2
2020/12/16 00:01:20;;;;;;;1.00;0.97;;;;;;;;;;5094312;28;20557;-70
2020/12/16 00:03:46;;;;;;;0.10;0.10;;;;;;;;;;5096243;28;20207;-70
2020/12/16 00:06:14;;;;;;;0.17;0.17;;;;;;;;;;5091318;28;20502;-70
2020/12/16 00:08:42;;;;;;;0.17;0.17;;;;;;;;;;5095281;28;20485;-70
2020/12/16 00:11:08;;;;;;;0.10;0.10;;;;;;;;;;5114853;28;20250;-71
2020/12/16 00:13:35;;;;;;;1.40;1.40;;;;;;;;;;5093181;28;20515;-70
2020/12/16 00:16:01;;;;;;;0.10;0.10;;;;;;;;;;5094989;28;20574;-71
2020/12/16 00:18:27;;;;;;;0.17;0.17;;;;;;;;;;5099854;28;20204;-71
2020/12/16 00:20:54;;;;;;;0.37;0.37;;;;;;;;;;5114090;28;20205;-70
2020/12/16 00:23:20;;;;;;;0.20;0.20;;;;;;;;;;5088370;28;20468;-70
2020/12/16 00:25:48;;;;;;;12.63;11.50;;;;;;;;;;5099187;28;20275;-71
2020/12/16 00:28:14;;;;;;;0.10;0.10;;;;;;;;;;5091462;28;20505;-70
2020/12/16 00:30:41;;;;;;;0.10;0.10;;;;;;;;;;5088249;28;20293;-70
2020/12/16 00:33:07;;;;;;;0.17;0.17;;;;;;;;;;5083626;28;20208;-70
2020/12/16 00:35:34;;;;;;;0.10;0.10;;;;;;;;;;5096154;28;20231;-71
2020/12/16 00:38:00;;;;;;;0.10;0.10;;;;;;;;;;5090290;28;20213;-71
2020/12/16 00:40:27;;;;;;;0.10;0.10;;;;;;;;;;5095734;28;20244;-70
2020/12/16 00:42:54;;;;;;;0.10;0.10;;;;;;;;;;5090327;28;20198;-71
2020/12/16 00:45:20;;;;;;;0.10;0.10;;;;;;;;;;5089269;28;20253;-71
2020/12/16 00:47:47;;;;;;;0.97;0.97;;;;;;;;;;5102843;28;20206;-70
2020/12/16 00:50:13;;;;;;;0.10;0.10;;;;;;;;;;5095400;28;20201;-71
2020/12/16 00:52:39;;;;;;;0.10;0.10;;;;;;;;;;5096036;28;20399;-70
2020/12/16 00:55:06;;;;;;;0.10;0.10;;;;;;;;;;5105143;28;20221;-71
2020/12/16 00:57:33;;;;;;;0.20;0.20;;;;;;;;;;5110253;28;20256;-71
2020/12/16 01:00:01;;;;;;;0.10;0.10;;;;;;;;;;5091095;28;20270;-70
2020/12/16 01:02:27;;;;;;;0.10;0.10;;;;;;;;;;5113693;28;20525;-71
2020/12/16 01:04:54;;;;;;;0.10;0.10;;;;;;;;;;5086835;28;20506;-71
2020/12/16 01:07:21;;;;;;;0.10;0.10;;;;;;;;;;5097008;28;20295;-71
2020/12/16 01:09:47;;;;;;;0.10;0.10;;;;;;;;;;5097992;28;20201;-70
2020/12/16 01:12:14;;;;;;;0.30;0.30;;;;;;;;;;5084679;28;20260;-70
2020/12/16 01:14:40;;;;;;;0.20;0.20;;;;;;;;;;5089195;28;20515;-71
2020/12/16 01:17:09;;;;;;;0.10;0.10;;;;;;;;;;5081686;28;20265;-71
2020/12/16 01:19:36;;;;;;;0.10;0.10;;;;;;;;;;5113221;28;20489;-71
2020/12/16 01:22:02;;;;;;;0.20;0.20;;;;;;;;;;5093517;28;20201;-71
2020/12/16 01:24:29;;;;;;;0.10;0.10;;;;;;;;;;5084811;28;20208;-71
2020/12/16 01:26:55;;;;;;;0.13;0.13;;;;;;;;;;5094177;28;20231;-70
2020/12/16 01:29:22;;;;;;;0.10;0.10;;;;;;;;;;5095490;28;20315;-71
2020/12/16 01:31:49;;;;;;;0.10;0.10;;;;;;;;;;5103017;28;20209;-70
2020/12/16 01:34:19;;;;;;;0.10;0.10;;;;;;;;;;5100224;28;20537;-70
2020/12/16 01:36:46;;;;;;;0.10;0.10;;;;;;;;;;5110335;28;20252;-70
2020/12/16 01:39:14;;;;;;;0.10;0.10;;;;;;;;;;5097902;28;20225;-71
2020/12/16 01:41:40;;;;;;;0.20;0.20;;;;;;;;;;5095358;28;20197;-71
2020/12/16 01:44:14;;;;;;;0.10;0.10;;;;;;;;;;5108641;28;20207;-70
2020/12/16 01:46:47;;;;;;;1.37;1.27;;;;;;;;;;5108089;28;20799;-71
2020/12/16 01:49:14;;;;;;;0.10;0.10;;;;;;;;;;5086287;28;20523;-71
2020/12/16 01:51:43;;;;;;;0.20;0.20;;;;;;;;;;5101554;28;20210;-71
2020/12/16 01:54:10;;;;;;;0.60;0.60;;;;;;;;;;5106165;28;20277;-70
2020/12/16 01:56:38;;;;;;;0.13;0.13;;;;;;;;;;5085799;28;20222;-70
2020/12/16 01:59:06;;;;;;;0.10;0.10;;;;;;;;;;5102461;28;20518;-71
2020/12/16 02:01:33;;;;;;;0.10;0.10;;;;;;;;;;5110500;28;20201;-70
2020/12/16 02:04:01;;;;;;;0.20;0.20;;;;;;;;;;5115272;28;20492;-71
2020/12/16 02:06:30;;;;;;;0.10;0.10;;;;;;;;;;5095720;28;20201;-70
2020/12/16 02:09:01;;;;;;;0.10;0.10;;;;;;;;;;5109750;28;20397;-70
2020/12/16 02:11:28;;;;;;;0.17;0.17;;;;;;;;;;5110508;28;20251;-70
2020/12/16 02:13:55;;;;;;;0.47;0.47;;;;;;;;;;5099241;28;20201;-70
2020/12/16 02:16:21;;;;;;;0.10;0.10;;;;;;;;;;5091628;28;20240;-70
2020/12/16 02:18:48;;;;;;;0.20;0.20;;;;;;;;;;5088708;28;20252;-70
2020/12/16 02:21:15;;;;;;;0.20;0.20;;;;;;;;;;5100508;28;20233;-70
2020/12/16 02:23:42;;;;;;;1.10;1.10;;;;;;;;;;5094435;28;20535;-70
2020/12/16 02:26:10;;;;;;;0.10;0.10;;;;;;;;;;5108467;28;20220;-70
2020/12/16 02:28:36;;;;;;;0.10;0.10;;;;;;;;;;5090270;28;20237;-70
2020/12/16 02:31:03;;;;;;;0.10;0.10;;;;;;;;;;5099444;28;20228;-71
2020/12/16 02:33:29;;;;;;;0.13;0.13;;;;;;;;;;5091012;28;20270;-70
2020/12/16 02:35:56;;;;;;;0.10;0.10;;;;;;;;;;5088915;28;20198;-71
2020/12/16 02:38:22;;;;;;;0.30;0.30;;;;;;;;;;5091779;28;20201;-70
2020/12/16 02:40:49;;;;;;;0.10;0.10;;;;;;;;;;5087759;28;20226;-71
2020/12/16 02:43:16;;;;;;;0.40;0.40;;;;;;;;;;5104564;28;20198;-70
2020/12/16 02:45:42;;;;;;;0.10;0.10;;;;;;;;;;5103705;28;20311;-71
2020/12/16 02:48:09;;;;;;;0.17;0.17;;;;;;;;;;5092073;28;20300;-70
2020/12/16 02:50:35;;;;;;;0.27;0.27;;;;;;;;;;5092017;28;20497;-70
2020/12/16 02:53:02;;;;;;;0.10;0.10;;;;;;;;;;5111219;28;20240;-70
2020/12/16 02:55:28;;;;;;;0.20;0.20;;;;;;;;;;5101878;28;20229;-71
2020/12/16 02:57:55;;;;;;;0.13;0.13;;;;;;;;;;5095752;28;20506;-70
2020/12/16 03:00:22;;;;;;;0.10;0.10;;;;;;;;;;5091685;28;20229;-71
2020/12/16 03:02:48;;;;;;;0.10;0.10;;;;;;;;;;5100690;28;20262;-70
2020/12/16 03:05:15;;;;;;;0.10;0.10;;;;;;;;;;5111019;28;20561;-70
2020/12/16 03:07:41;;;;;;;0.10;0.10;;;;;;;;;;5096565;28;20233;-71
2020/12/16 03:10:08;;;;;;;0.30;0.30;;;;;;;;;;5097778;28;20493;-70
2020/12/16 03:12:34;;;;;;;0.10;0.10;;;;;;;;;;5110124;28;20221;-70
2020/12/16 03:15:00;;;;;;;0.10;0.10;;;;;;;;;;5091504;28;20225;-71
2020/12/16 03:17:28;;;;;;;0.73;0.73;;;;;;;;;;5101907;28;21074;-70
2020/12/16 03:19:54;;;;;;;0.10;0.10;;;;;;;;;;5100648;28;20206;-71
2020/12/16 03:22:20;;;;;;;0.10;0.10;;;;;;;;;;5091100;28;20226;-70
2020/12/16 03:24:47;;;;;;;0.10;0.10;;;;;;;;;;5096322;28;20478;-71
2020/12/16 03:27:13;;;;;;;0.10;0.10;;;;;;;;;;5087463;28;20323;-71
2020/12/16 03:29:40;;;;;;;0.10;0.10;;;;;;;;;;5101650;28;20264;-68
2020/12/16 03:32:06;;;;;;;0.10;0.10;;;;;;;;;;5097934;28;20206;-69
2020/12/16 03:34:34;;;;;;;2.50;2.30;;;;;;;;;;5094439;28;20229;-69
2020/12/16 03:37:00;;;;;;;0.10;0.10;;;;;;;;;;5091273;28;20242;-69
2020/12/16 03:39:26;;;;;;;0.10;0.10;;;;;;;;;;5092651;28;20228;-69
2020/12/16 03:41:53;;;;;;;0.13;0.13;;;;;;;;;;5109771;28;20232;-69
2020/12/16 03:44:19;;;;;;;0.10;0.10;;;;;;;;;;5094767;28;20233;-69
2020/12/16 03:46:46;;;;;;;0.10;0.10;;;;;;;;;;5110667;28;20495;-69
2020/12/16 03:49:12;;;;;;;0.10;0.10;;;;;;;;;;5094225;28;20498;-69
2020/12/16 03:51:39;;;;;;;0.13;0.13;;;;;;;;;;5097186;28;20240;-69
2020/12/16 03:54:06;;;;;;;0.10;0.10;;;;;;;;;;5110159;28;20237;-69
2020/12/16 03:56:32;;;;;;;0.10;0.10;;;;;;;;;;5090003;28;20248;-69
2020/12/16 03:58:58;;;;;;;0.20;0.20;;;;;;;;;;5098180;28;20209;-69
2020/12/16 04:01:25;;;;;;;0.17;0.17;;;;;;;;;;5100742;28;20274;-69
2020/12/16 04:03:51;;;;;;;0.10;0.10;;;;;;;;;;5105935;28;20498;-70
2020/12/16 04:06:18;;;;;;;0.10;0.10;;;;;;;;;;5094665;28;20229;-69
2020/12/16 04:08:45;;;;;;;0.10;0.10;;;;;;;;;;5088754;28;20202;-69
2020/12/16 04:11:12;;;;;;;0.10;0.10;;;;;;;;;;5114554;28;20531;-69
2020/12/16 04:13:38;;;;;;;0.10;0.10;;;;;;;;;;5115609;28;20228;-69
2020/12/16 04:16:05;;;;;;;0.20;0.20;;;;;;;;;;5107318;28;20256;-69
2020/12/16 04:18:31;;;;;;;0.10;0.10;;;;;;;;;;5114955;28;20225;-69
2020/12/16 04:20:58;;;;;;;0.13;0.13;;;;;;;;;;5113664;28;20194;-69
2020/12/16 04:23:24;;;;;;;0.10;0.10;;;;;;;;;;5094493;28;20208;-69
2020/12/16 04:25:52;;;;;;;0.10;0.10;;;;;;;;;;5095912;28;20225;-69
2020/12/16 04:28:18;;;;;;;0.10;0.10;;;;;;;;;;5099815;28;20212;-69
2020/12/16 04:30:45;;;;;;;0.10;0.10;;;;;;;;;;5093449;28;20232;-69
2020/12/16 04:33:11;;;;;;;0.10;0.10;;;;;;;;;;5091855;28;20280;-69
2020/12/16 04:35:38;;;;;;;0.10;0.10;;;;;;;;;;5103759;28;20221;-68
2020/12/16 04:38:04;;;;;;;0.10;0.10;;;;;;;;;;5100513;28;20217;-68
2020/12/16 04:40:31;;;;;;;0.10;0.10;;;;;;;;;;5098657;28;20204;-69
2020/12/16 04:43:06;;;;;;;0.20;0.20;;;;;;;;;;5089777;28;20233;-69
2020/12/16 04:45:32;;;;;;;0.20;0.20;;;;;;;;;;5114894;28;20221;-69
2020/12/16 04:47:59;;;;;;;0.10;0.10;;;;;;;;;;5115370;28;20240;-69
2020/12/16 04:50:25;;;;;;;0.10;0.10;;;;;;;;;;5112400;28;20216;-69
2020/12/16 04:52:52;;;;;;;0.10;0.10;;;;;;;;;;5090839;28;20269;-69
2020/12/16 04:55:19;;;;;;;0.20;0.20;;;;;;;;;;5110959;28;20228;-69
2020/12/16 04:57:48;;;;;;;0.10;0.10;;;;;;;;;;5113105;28;20245;-68
2020/12/16 05:00:15;;;;;;;0.10;0.10;;;;;;;;;;5114597;28;20435;-69
2020/12/16 05:02:48;;;;;;;0.10;0.10;;;;;;;;;;5088183;28;20205;-69
2020/12/16 05:05:14;;;;;;;0.10;0.10;;;;;;;;;;5109199;28;20205;-70
2020/12/16 05:07:41;;;;;;;0.10;0.10;;;;;;;;;;5093662;28;20264;-69
2020/12/16 05:10:07;;;;;;;0.17;0.17;;;;;;;;;;5116436;28;20264;-69
2020/12/16 05:12:35;;;;;;;0.20;0.20;;;;;;;;;;5095496;28;20226;-69
2020/12/16 05:15:02;;;;;;;0.20;0.20;;;;;;;;;;5095118;28;20198;-69
2020/12/16 05:17:29;;;;;;;0.20;0.20;;;;;;;;;;5097626;28;20524;-69
2020/12/16 05:19:55;;;;;;;0.10;0.10;;;;;;;;;;5107587;28;20269;-69
2020/12/16 05:22:26;;;;;;;2.93;2.83;;;;;;;;;;5094651;28;20215;-69
2020/12/16 05:24:53;;;;;;;0.67;0.67;;;;;;;;;;5092847;28;20207;-69
2020/12/16 05:27:20;;;;;;;0.10;0.10;;;;;;;;;;5111387;28;20194;-69
2020/12/16 05:29:46;;;;;;;0.10;0.10;;;;;;;;;;5116587;28;20207;-69
2020/12/16 05:32:19;;;;;;;0.20;0.20;;;;;;;;;;5108657;28;20533;-68
2020/12/16 05:34:47;;;;;;;0.10;0.10;;;;;;;;;;5102339;28;20278;-69
2020/12/16 05:37:40;;;;;;;0.20;0.20;;;;;;;;;;5091321;28;20253;-69
2020/12/16 05:40:09;;;;;;;0.53;0.53;;;;;;;;;;5053399;28;20263;-68
2020/12/16 05:42:35;;;;;;;2.63;2.53;;;;;;;;;;5109251;28;20195;-69
2020/12/16 05:45:12;;;;;;;0.10;0.10;;;;;;;;;;5090741;28;20474;-69
2020/12/16 05:47:40;;;;;;;1.40;1.40;;;;;;;;;;5115633;28;20367;-68
2020/12/16 05:50:18;;;;;;;0.10;0.10;;;;;;;;;;5108428;28;20205;-68
2020/12/16 05:52:45;;;;;;;0.10;0.10;;;;;;;;;;5098580;28;20229;-69
2020/12/16 05:55:12;;;;;;;0.20;0.20;;;;;;;;;;5088101;28;20229;-68
2020/12/16 05:57:38;;;;;;;0.10;0.10;;;;;;;;;;5094786;28;20249;-68
2020/12/16 06:00:07;;;;;;;0.10;0.10;;;;;;;;;;5095749;28;20194;-69
2020/12/16 06:02:35;;;;;;;0.10;0.10;;;;;;;;;;5096226;28;20489;-69
2020/12/16 06:05:02;;;;;;;0.10;0.10;;;;;;;;;;5098778;28;20202;-69
2020/12/16 06:07:31;;;;;;;0.10;0.10;;;;;;;;;;5101462;28;20225;-69
2020/12/16 06:09:57;;;;;;;0.10;0.10;;;;;;;;;;5112753;28;20205;-68
2020/12/16 06:12:26;;;;;;;0.17;0.17;;;;;;;;;;5111585;28;20244;-68
2020/12/16 06:14:55;;;;;;;0.10;0.10;;;;;;;;;;5104835;28;20234;-68
2020/12/16 06:17:22;;;;;;;0.20;0.20;;;;;;;;;;5105393;28;20475;-68
2020/12/16 06:19:50;;;;;;;0.17;0.17;;;;;;;;;;5094307;28;20230;-68
2020/12/16 06:22:17;;;;;;;0.10;0.10;;;;;;;;;;5091302;28;20500;-69
2020/12/16 06:24:44;;;;;;;0.10;0.10;;;;;;;;;;5086310;28;20273;-69
2020/12/16 06:27:12;;;;;;;0.20;0.20;;;;;;;;;;5096535;28;20236;-69
2020/12/16 06:29:41;;;;;;;0.17;0.17;;;;;;;;;;5109666;28;20247;-69
2020/12/16 06:32:10;;;;;;;0.10;0.10;;;;;;;;;;5120216;28;20240;-69
2020/12/16 06:34:38;;;;;;;0.10;0.10;;;;;;;;;;5110651;28;20248;-69
2020/12/16 06:37:05;;;;;;;0.10;0.10;;;;;;;;;;5098895;28;20520;-69
2020/12/16 06:39:39;;;;;;;0.20;0.20;;;;;;;;;;5096425;28;20388;-69
2020/12/16 06:42:06;;;;;;;0.30;0.30;;;;;;;;;;5108352;28;20450;-69
2020/12/16 06:44:33;;;;;;;0.30;0.30;;;;;;;;;;5100212;28;20533;-68
2020/12/16 06:46:59;;;;;;;0.30;0.30;;;;;;;;;;5085821;28;20190;-68
2020/12/16 06:49:27;;;;;;;0.20;0.20;;;;;;;;;;5107781;28;20383;-69
2020/12/16 06:51:54;;;;;;;0.10;0.10;;;;;;;;;;5093798;28;20547;-68
2020/12/16 06:54:21;;;;;;;0.20;0.20;;;;;;;;;;5116084;28;20301;-69
2020/12/16 06:56:48;;;;;;;0.10;0.10;;;;;;;;;;5120192;28;20229;-70
2020/12/16 06:59:35;;;;;;;0.40;0.40;;;;;;;;;;5113164;28;20225;-69
2020/12/16 07:02:08;;;;;;;0.10;0.10;;;;;;;;;;5117954;28;20218;-69
2020/12/16 07:04:35;;;;;;;0.10;0.10;;;;;;;;;;5096832;28;20339;-69
2020/12/16 07:07:02;;;;;;;0.10;0.10;;;;;;;;;;5098593;28;20221;-69
2020/12/16 07:09:31;;;;;;;0.20;0.20;;;;;;;;;;5096058;28;20239;-69
2020/12/16 07:11:58;;;;;;;0.10;0.10;;;;;;;;;;5111350;28;20209;-71
2020/12/16 07:14:27;;;;;;;0.10;0.10;;;;;;;;;;5111391;28;20241;-74
2020/12/16 07:17:04;;;;;;;0.17;0.17;;;;;;;;;;5109460;28;20246;-70
2020/12/16 07:19:30;;;;;;;0.20;0.20;;;;;;;;;;5110598;28;20202;-71
2020/12/16 07:21:57;;;;;;;0.10;0.10;;;;;;;;;;5095749;28;20204;-69
2020/12/16 07:24:23;;;;;;;3.60;1.70;;;;;;;;;;5085853;28;20233;-69
2020/12/16 07:26:51;;;;;;;0.10;0.10;;;;;;;;;;5109563;28;20231;-68
2020/12/16 07:29:18;;;;;;;0.20;0.20;;;;;;;;;;5093995;28;20524;-69
2020/12/16 07:31:53;;;;;;;0.20;0.20;;;;;;;;;;5111216;28;20496;-69
2020/12/16 07:34:20;;;;;;;0.10;0.10;;;;;;;;;;5107565;28;20202;-68
2020/12/16 07:36:47;;;;;;;0.20;0.20;;;;;;;;;;5111893;28;20256;-71
2020/12/16 07:39:13;;;;;;;0.20;0.20;;;;;;;;;;5100810;28;20233;-69
2020/12/16 07:41:41;;;;;;;0.10;0.10;;;;;;;;;;5098080;28;20248;-69
2020/12/16 07:44:10;;;;;;;0.20;0.20;;;;;;;;;;5114318;28;20233;-70
2020/12/16 07:46:36;;;;;;;0.10;0.10;;;;;;;;;;5127604;27;20503;-68
2020/12/16 07:49:04;;;;;;;1.67;1.63;;;;;;;;;;5102628;28;20204;-70
2020/12/16 07:51:30;;;;;;;0.10;0.10;;;;;;;;;;5089568;28;20218;-70
2020/12/16 07:53:57;;;;;;;0.10;0.10;;;;;;;;;;5096439;28;20222;-71
2020/12/16 07:56:23;;;;;;;0.17;0.17;;;;;;;;;;5098784;28;20201;-70
2020/12/16 07:58:50;;;;;;;0.10;0.10;;;;;;;;;;5098956;28;20201;-70
2020/12/16 08:01:17;;;;;;;0.10;0.10;;;;;;;;;;5096486;28;20511;-69
2020/12/16 08:03:44;;;;;;;0.20;0.20;;;;;;;;;;5106295;28;20201;-69
2020/12/16 08:06:12;;;;;;;0.10;0.10;;;;;;;;;;5087941;28;20247;-69
2020/12/16 08:08:42;;;;;;;0.10;0.10;;;;;;;;;;5095060;28;20504;-69
2020/12/16 08:11:11;;;;;;;0.10;0.10;;;;;;;;;;5092709;28;20269;-69
2020/12/16 08:13:38;;;;;;;0.10;0.10;;;;;;;;;;5111095;28;20196;-69
2020/12/16 08:16:05;;;;;;;0.20;0.20;;;;;;;;;;5100665;28;20536;-69
2020/12/16 08:18:32;;;;;;;0.10;0.10;;;;;;;;;;5100542;28;20220;-69
2020/12/16 08:20:58;;;;;;;0.10;0.10;;;;;;;;;;5088143;28;20376;-68
2020/12/16 08:23:25;;;;;;;0.10;0.10;;;;;;;;;;5102592;28;20237;-70
2020/12/16 08:25:52;;;;;;;0.10;0.10;;;;;;;;;;5106318;28;20280;-68
2020/12/16 08:28:24;;;;;;;0.10;0.10;;;;;;;;;;5088244;28;20200;-68
2020/12/16 08:30:51;;;;;;;0.60;0.60;;;;;;;;;;5102529;28;20224;-69
2020/12/16 08:33:18;;;;;;;0.20;0.20;;;;;;;;;;5112456;28;20209;-69
2020/12/16 08:35:49;;;;;;;0.10;0.10;;;;;;;;;;5089536;28;20209;-68
2020/12/16 08:38:18;;;;;;;2.00;2.00;;;;;;;;;;5111416;28;20221;-70
2020/12/16 08:40:47;;;;;;;0.10;0.10;;;;;;;;;;5108378;28;20209;-70
2020/12/16 08:43:17;;;;;;;0.13;0.13;;;;;;;;;;5096881;28;20243;-68
2020/12/16 08:45:44;;;;;;;0.10;0.10;;;;;;;;;;5093707;28;20225;-69
2020/12/16 08:48:10;;;;;;;0.10;0.10;;;;;;;;;;5109488;28;20218;-69
2020/12/16 08:50:37;;;;;;;2.27;2.20;;;;;;;;;;5111776;28;20201;-70
2020/12/16 08:53:03;;;;;;;0.13;0.13;;;;;;;;;;5093509;28;20201;-69
2020/12/16 08:55:33;;;;;;;0.13;0.13;;;;;;;;;;5105797;28;20209;-72
2020/12/16 08:58:01;;;;;;;0.13;0.13;;;;;;;;;;5116093;28;20225;-69
2020/12/16 09:00:28;;;;;;;0.10;0.10;;;;;;;;;;5097814;28;20208;-69
2020/12/16 09:03:03;;;;;;;0.10;0.10;;;;;;;;;;5096450;28;20400;-69
2020/12/16 09:05:29;;;;;;;0.10;0.10;;;;;;;;;;5093307;28;20490;-68
2020/12/16 09:08:12;;;;;;;0.10;0.10;;;;;;;;;;5101284;28;20392;-69
2020/12/16 09:10:40;;;;;;;0.20;0.20;;;;;;;;;;5106502;28;20205;-68
2020/12/16 09:13:08;;;;;;;0.20;0.20;;;;;;;;;;5101326;28;20196;-69
2020/12/16 09:15:35;;;;;;;0.10;0.10;;;;;;;;;;5098624;28;20229;-70
2020/12/16 09:18:01;;;;;;;0.10;0.10;;;;;;;;;;5101202;28;20545;-69
2020/12/16 09:20:30;;;;;;;0.10;0.10;;;;;;;;;;5098045;28;20310;-69
2020/12/16 09:22:56;;;;;;;0.10;0.10;;;;;;;;;;5100599;28;20278;-69
2020/12/16 09:25:23;;;;;;;0.20;0.20;;;;;;;;;;5094959;28;20198;-69
2020/12/16 09:27:50;;;;;;;0.10;0.10;;;;;;;;;;5091121;28;20201;-71
2020/12/16 09:30:25;;;;;;;0.93;0.93;;;;;;;;;;5103491;28;20496;-69
2020/12/16 09:32:52;;;;;;;0.17;0.17;;;;;;;;;;5113972;28;20208;-70
2020/12/16 09:35:19;;;;;;;0.20;0.20;;;;;;;;;;5094926;28;20408;-69
2020/12/16 09:37:45;;;;;;;0.10;0.10;;;;;;;;;;5083326;28;20225;-69
2020/12/16 09:40:13;;;;;;;0.10;0.10;;;;;;;;;;5095881;28;20346;-70
2020/12/16 09:42:40;;;;;;;0.10;0.10;;;;;;;;;;5100897;28;20277;-71
2020/12/16 09:45:10;;;;;;;0.10;0.10;;;;;;;;;;5091837;28;20434;-71
2020/12/16 09:47:42;;;;;;;0.10;0.10;;;;;;;;;;5110427;28;20195;-71
2020/12/16 09:50:09;;;;;;;0.10;0.10;;;;;;;;;;5123320;28;20221;-71
2020/12/16 09:52:36;;;;;;;0.10;0.10;;;;;;;;;;5107883;28;20202;-71
2020/12/16 09:55:13;;;;;;;0.10;0.10;;;;;;;;;;5086971;28;20385;-71
2020/12/16 09:57:39;;;;;;;0.10;0.10;;;;;;;;;;5088608;28;20382;-71
2020/12/16 10:00:06;;;;;;;0.10;0.10;;;;;;;;;;5093760;28;20477;-71
2020/12/16 10:02:33;;;;;;;0.13;0.13;;;;;;;;;;5090206;28;20199;-71
2020/12/16 10:05:00;;;;;;;0.10;0.10;;;;;;;;;;5088699;28;20194;-72
2020/12/16 10:07:26;;;;;;;0.10;0.10;;;;;;;;;;5108560;28;20393;-72
2020/12/16 10:09:54;;;;;;;0.10;0.10;;;;;;;;;;5117141;28;20205;-71
2020/12/16 10:12:22;;;;;;;0.17;0.17;;;;;;;;;;5093716;28;20203;-71
2020/12/16 10:14:48;;;;;;;0.20;0.20;;;;;;;;;;5104511;28;20198;-72
2020/12/16 10:17:15;;;;;;;0.10;0.10;;;;;;;;;;5120938;28;20233;-72
2020/12/16 10:19:42;;;;;;;0.20;0.20;;;;;;;;;;5102316;28;20315;-73
2020/12/16 10:22:10;;;;;;;0.13;0.13;;;;;;;;;;5102006;28;20240;-71
2020/12/16 10:24:36;;;;;;;0.10;0.10;;;;;;;;;;5103857;28;20202;-71
2020/12/16 10:27:03;;;;;;;0.20;0.20;;;;;;;;;;5105946;28;20236;-73
2020/12/16 10:29:29;;;;;;;0.17;0.17;;;;;;;;;;5111117;28;20538;-72
2020/12/16 10:31:56;;;;;;;0.10;0.10;;;;;;;;;;5112764;28;20198;-73
2020/12/16 10:34:22;;;;;;;0.20;0.20;;;;;;;;;;5099389;28;20234;-71
2020/12/16 10:36:50;;;;;;;1.23;1.20;;;;;;;;;;5103832;28;20198;-72
2020/12/16 10:39:17;;;;;;;0.20;0.20;;;;;;;;;;5111768;28;20229;-73
2020/12/16 10:41:48;;;;;;;0.17;0.17;;;;;;;;;;5098044;28;20402;-72
2020/12/16 10:44:14;;;;;;;0.40;0.40;;;;;;;;;;5121056;28;20493;-72
2020/12/16 10:46:43;;;;;;;0.30;0.30;;;;;;;;;;5092891;28;20497;-72
2020/12/16 10:49:09;;;;;;;0.10;0.10;;;;;;;;;;5105557;28;20297;-72
2020/12/16 10:51:36;;;;;;;2.80;2.70;;;;;;;;;;5107068;28;20400;-75
2020/12/16 10:54:02;;;;;;;3.20;3.07;;;;;;;;;;5090470;28;20236;-73
2020/12/16 10:56:29;;;;;;;0.47;0.47;;;;;;;;;;5088917;28;20363;-72
2020/12/16 10:58:56;;;;;;;0.10;0.10;;;;;;;;;;5116163;28;20265;-74
2020/12/16 11:01:23;;;;;;;0.20;0.20;;;;;;;;;;5096171;28;20243;-73
2020/12/16 11:03:50;;;;;;;0.67;0.67;;;;;;;;;;5097171;28;20449;-73
2020/12/16 11:06:17;;;;;;;2.20;2.20;;;;;;;;;;5090740;28;20199;-72
2020/12/16 11:08:44;;;;;;;0.13;0.13;;;;;;;;;;5086728;28;20197;-73
2020/12/16 11:11:11;;;;;;;0.10;0.10;;;;;;;;;;5090258;28;20202;-73
2020/12/16 11:13:37;;;;;;;0.10;0.10;;;;;;;;;;5095025;28;20502;-73
2020/12/16 11:16:04;;;;;;;0.20;0.20;;;;;;;;;;5089429;28;20271;-72
2020/12/16 11:18:32;;;;;;;0.10;0.10;;;;;;;;;;5103053;28;20230;-72
2020/12/16 11:20:58;;;;;;;0.10;0.10;;;;;;;;;;5100304;28;20555;-72
2020/12/16 11:23:25;;;;;;;0.20;0.20;;;;;;;;;;5102407;28;20201;-73
2020/12/16 11:25:52;;;;;;;0.20;0.20;;;;;;;;;;5094814;28;20255;-72
2020/12/16 11:28:18;;;;;;;0.20;0.20;;;;;;;;;;5088741;28;20203;-75
2020/12/16 11:30:46;;;;;;;0.33;0.33;;;;;;;;;;5100643;28;20240;-72
2020/12/16 11:33:12;;;;;;;0.10;0.10;;;;;;;;;;5097432;28;20401;-73
2020/12/16 11:35:40;;;;;;;1.80;1.80;;;;;;;;;;5092152;28;20371;-72
2020/12/16 11:38:06;;;;;;;0.10;0.10;;;;;;;;;;5121305;28;20268;-72
2020/12/16 11:40:33;;;;;;;0.10;0.10;;;;;;;;;;5093317;28;20514;-72
2020/12/16 11:42:59;;;;;;;0.10;0.10;;;;;;;;;;5099234;28;20201;-72
2020/12/16 11:45:26;;;;;;;0.10;0.10;;;;;;;;;;5089483;28;20242;-73
2020/12/16 11:47:52;;;;;;;0.10;0.10;;;;;;;;;;5096917;28;20275;-73
2020/12/16 11:50:19;;;;;;;0.20;0.20;;;;;;;;;;5091602;28;20333;-72
2020/12/16 11:52:46;;;;;;;0.20;0.20;;;;;;;;;;5090735;28;20203;-72
2020/12/16 11:55:13;;;;;;;0.10;0.10;;;;;;;;;;5122241;28;20198;-71
2020/12/16 11:57:39;;;;;;;1.67;0.93;;;;;;;;;;5103103;28;20224;-72
2020/12/16 12:00:06;;;;;;;0.13;0.13;;;;;;;;;;5110800;28;20195;-71
2020/12/16 12:02:32;;;;;;;0.10;0.10;;;;;;;;;;5089597;28;20202;-71
2020/12/16 12:04:59;;;;;;;0.40;0.40;;;;;;;;;;5102187;28;20209;-71
2020/12/16 12:07:25;;;;;;;0.10;0.10;;;;;;;;;;5109347;28;20195;-70
2020/12/16 12:09:53;;;;;;;0.30;0.30;;;;;;;;;;5095102;28;20206;-73
2020/12/16 12:12:19;;;;;;;0.20;0.20;;;;;;;;;;5105188;28;20206;-69
2020/12/16 12:14:46;;;;;;;0.43;0.43;;;;;;;;;;5093833;28;20199;-70
2020/12/16 12:17:13;;;;;;;0.20;0.20;;;;;;;;;;5090660;28;20233;-71
2020/12/16 12:19:42;;;;;;;0.10;0.10;;;;;;;;;;5103058;28;20277;-68
2020/12/16 12:22:08;;;;;;;0.10;0.10;;;;;;;;;;5103291;28;20194;-70
2020/12/16 12:24:35;;;;;;;0.10;0.10;;;;;;;;;;5117768;28;20203;-70
2020/12/16 12:27:04;;;;;;;0.10;0.10;;;;;;;;;;5113571;28;20343;-70
2020/12/16 12:29:31;;;;;;;0.10;0.10;;;;;;;;;;5113186;28;20202;-71
2020/12/16 12:31:57;;;;;;;1.17;1.17;;;;;;;;;;5111483;28;20528;-70
2020/12/16 12:34:24;;;;;;;0.10;0.10;;;;;;;;;;5098573;28;20198;-71
2020/12/16 12:36:51;;;;;;;0.17;0.17;;;;;;;;;;5101742;28;20208;-72
2020/12/16 12:39:18;;;;;;;0.10;0.10;;;;;;;;;;5100825;28;20210;-70
2020/12/16 12:41:44;;;;;;;0.17;0.17;;;;;;;;;;5114018;28;20400;-70
2020/12/16 12:44:12;;;;;;;0.20;0.20;;;;;;;;;;5098714;28;20223;-70
2020/12/16 12:46:39;;;;;;;0.20;0.20;;;;;;;;;;5103907;28;20199;-72
2020/12/16 12:49:05;;;;;;;3.50;3.30;;;;;;;;;;5099027;28;20511;-71
2020/12/16 12:51:32;;;;;;;0.10;0.10;;;;;;;;;;5110877;28;20240;-72
2020/12/16 12:53:58;;;;;;;0.17;0.17;;;;;;;;;;5102716;28;20432;-72
2020/12/16 12:56:25;;;;;;;0.20;0.20;;;;;;;;;;5116533;28;20351;-72
2020/12/16 12:58:52;;;;;;;0.60;0.60;;;;;;;;;;5107337;28;20243;-73
2020/12/16 13:01:20;;;;;;;0.20;0.20;;;;;;;;;;5096080;28;20406;-72
2020/12/16 13:03:47;;;;;;;0.20;0.20;;;;;;;;;;5099458;28;20209;-71
2020/12/16 13:06:14;;;;;;;0.77;0.77;;;;;;;;;;5095350;28;20373;-70
2020/12/16 13:08:41;;;;;;;0.10;0.10;;;;;;;;;;5105996;28;20196;-71
2020/12/16 13:11:10;;;;;;;0.83;0.83;;;;;;;;;;5094451;28;20397;-72
2020/12/16 13:13:39;;;;;;;0.30;0.30;;;;;;;;;;5109553;28;20202;-74
2020/12/16 13:16:07;;;;;;;0.20;0.20;;;;;;;;;;5101775;28;20241;-72
2020/12/16 13:18:34;;;;;;;0.10;0.10;;;;;;;;;;5107015;28;20277;-71
2020/12/16 13:21:01;;;;;;;0.10;0.10;;;;;;;;;;5103778;28;20202;-73
2020/12/16 13:23:28;;;;;;;0.10;0.10;;;;;;;;;;5115037;28;20199;-73
2020/12/16 13:25:54;;;;;;;0.13;0.13;;;;;;;;;;5102463;28;20385;-74
2020/12/16 13:28:21;;;;;;;0.10;0.10;;;;;;;;;;5107080;28;20269;-73
2020/12/16 13:30:48;;;;;;;0.10;0.10;;;;;;;;;;5106848;28;20273;-71
2020/12/16 13:33:15;;;;;;;0.10;0.10;;;;;;;;;;5101065;28;20472;-71
2020/12/16 13:35:42;;;;;;;1.90;1.90;;;;;;;;;;5118042;28;20202;-73
2020/12/16 13:38:09;;;;;;;0.20;0.20;;;;;;;;;;5093884;28;20219;-72
2020/12/16 13:40:35;;;;;;;0.10;0.10;;;;;;;;;;5114524;28;20198;-72
2020/12/16 13:43:02;;;;;;;0.10;0.10;;;;;;;;;;5088949;28;20205;-74
2020/12/16 13:45:29;;;;;;;0.10;0.10;;;;;;;;;;5104512;28;20281;-71
2020/12/16 13:47:56;;;;;;;0.20;0.20;;;;;;;;;;5113662;28;20198;-70
2020/12/16 13:50:23;;;;;;;0.20;0.20;;;;;;;;;;5117440;28;20213;-69
2020/12/16 13:52:56;;;;;;;0.10;0.10;;;;;;;;;;5093692;28;20214;-71
2020/12/16 13:55:25;;;;;;;0.13;0.13;;;;;;;;;;5124212;28;20464;-71
2020/12/16 13:58:02;;;;;;;0.17;0.17;;;;;;;;;;5091518;28;20230;-70
2020/12/16 14:00:47;;;;;;;;;;;;;;;;;;;;;
2020/12/16 14:03:17;;;;;;;0.47;0.47;;;;;;;;;;5124341;28;20240;-71
2020/12/16 14:05:44;;;;;;;0.47;0.47;;;;;;;;;;5128538;28;20199;-71
2020/12/16 14:08:11;;;;;;;0.60;0.60;;;;;;;;;;5106754;28;20196;-78
2020/12/16 14:10:38;;;;;;;0.20;0.20;;;;;;;;;;5104844;28;20201;-77
2020/12/16 14:13:05;;;;;;;0.17;0.17;;;;;;;;;;5105225;28;20221;-70
2020/12/16 14:15:32;;;;;;;0.80;0.80;;;;;;;;;;5100238;28;20263;-69
2020/12/16 14:17:59;;;;;;;0.30;0.30;;;;;;;;;;5103036;28;20218;-70
2020/12/16 14:20:26;;;;;;;0.10;0.10;;;;;;;;;;5101373;28;20203;-69
2020/12/16 14:22:53;;;;;;;0.10;0.10;;;;;;;;;;5094499;28;20202;-69
2020/12/16 14:25:21;;;;;;;0.10;0.10;;;;;;;;;;5093614;28;20242;-69
2020/12/16 14:27:48;;;;;;;0.20;0.20;;;;;;;;;;5086517;28;20490;-69
2020/12/16 14:30:14;;;;;;;0.10;0.10;;;;;;;;;;5103863;28;20205;-69
2020/12/16 14:32:41;;;;;;;0.20;0.20;;;;;;;;;;5104091;28;20199;-69
2020/12/16 14:35:08;;;;;;;0.10;0.10;;;;;;;;;;5099164;28;20381;-68
2020/12/16 14:37:34;;;;;;;0.20;0.20;;;;;;;;;;5114848;28;20213;-69
2020/12/16 14:40:01;;;;;;;0.27;0.27;;;;;;;;;;5089708;28;20222;-70
2020/12/16 14:42:29;;;;;;;0.13;0.13;;;;;;;;;;5091812;28;20305;-69
2020/12/16 14:44:55;;;;;;;0.10;0.10;;;;;;;;;;5095239;28;20218;-69